SAS7746 LGSM-EKCH
Flight info
| Callsign | SAS7746 |
|---|---|
| Flight time | N/A |
| Altitude | 36000 |
| Route | URNIL UL609 MES UG18 GIKAS UN133 PEREN UL863 EVIVI L863 OKANA DCT ESIRI DCT PARAK DCT PATAK/N0448F380 DCT BILNA DCT SOPAV DCT REGLI L617 KOLOB DCT TIDVU |
| Aircraft | A320/M-SDE3FGHIRWY/LB1 |
Departure
| Time | N/A |
|---|---|
| Airport | Samos Airport (LGSM) |
Arrival
| Time | 2026-04-26 05:43 |
|---|---|
| Airport | Copenhagen Kastrup Airport (EKCH) |
| Time | Latitude | Longitude | Altitude | Speed | Heading |
|---|---|---|---|---|---|
| 2026-04-26 04:37 | 51.19003 | 17.31049 | 35945 ft | 418 kts | 334° |
| 2026-04-26 04:37 | 51.21720 | 17.29401 | 35940 ft | 418 kts | 334° |
| 2026-04-26 04:38 | 51.27147 | 17.26098 | 35949 ft | 417 kts | 334° |
| 2026-04-26 04:38 | 51.32560 | 17.22800 | 35946 ft | 417 kts | 334° |
| 2026-04-26 04:39 | 51.37975 | 17.19497 | 35940 ft | 417 kts | 334° |
| 2026-04-26 04:39 | 51.43386 | 17.16183 | 35937 ft | 417 kts | 334° |
| 2026-04-26 04:40 | 51.48806 | 17.12848 | 35938 ft | 417 kts | 334° |
| 2026-04-26 04:40 | 51.54222 | 17.09513 | 35955 ft | 417 kts | 334° |
| 2026-04-26 04:41 | 51.59640 | 17.06174 | 35945 ft | 417 kts | 334° |
| 2026-04-26 04:41 | 51.65047 | 17.02833 | 35941 ft | 416 kts | 334° |
| 2026-04-26 04:42 | 51.70453 | 16.99464 | 35933 ft | 416 kts | 334° |
| 2026-04-26 04:42 | 51.75854 | 16.96098 | 35929 ft | 416 kts | 334° |
| 2026-04-26 04:43 | 51.81254 | 16.92742 | 35941 ft | 416 kts | 334° |
| 2026-04-26 04:43 | 51.86648 | 16.89371 | 35930 ft | 416 kts | 334° |
| 2026-04-26 04:44 | 51.92075 | 16.85956 | 35928 ft | 416 kts | 334° |
| 2026-04-26 04:44 | 51.97466 | 16.82567 | 35929 ft | 416 kts | 334° |
| 2026-04-26 04:45 | 52.02862 | 16.79178 | 35929 ft | 415 kts | 334° |
| 2026-04-26 04:45 | 52.08233 | 16.75788 | 35915 ft | 413 kts | 334° |
| 2026-04-26 04:46 | 52.13588 | 16.72390 | 35915 ft | 413 kts | 334° |
| 2026-04-26 04:46 | 52.18946 | 16.69030 | 35913 ft | 413 kts | 334° |
| 2026-04-26 04:47 | 52.24329 | 16.65692 | 35912 ft | 413 kts | 334° |
| 2026-04-26 04:47 | 52.29695 | 16.62349 | 35912 ft | 413 kts | 334° |
| 2026-04-26 04:48 | 52.37747 | 16.57276 | 35900 ft | 413 kts | 334° |
| 2026-04-26 04:48 | 52.43155 | 16.53879 | 35907 ft | 413 kts | 334° |
| 2026-04-26 04:49 | 52.48513 | 16.50498 | 35911 ft | 413 kts | 334° |
| 2026-04-26 04:49 | 52.53876 | 16.47098 | 35910 ft | 413 kts | 334° |
| 2026-04-26 04:50 | 52.59226 | 16.43702 | 35925 ft | 413 kts | 334° |
| 2026-04-26 04:50 | 52.64574 | 16.40308 | 35906 ft | 411 kts | 334° |
| 2026-04-26 04:51 | 52.69916 | 16.36894 | 35903 ft | 411 kts | 334° |
| 2026-04-26 04:51 | 52.75254 | 16.33472 | 35898 ft | 412 kts | 334° |
| 2026-04-26 04:52 | 52.80595 | 16.30044 | 35887 ft | 412 kts | 334° |
| 2026-04-26 04:52 | 52.85936 | 16.26601 | 35890 ft | 412 kts | 334° |
| 2026-04-26 04:53 | 52.91261 | 16.23161 | 35885 ft | 409 kts | 333° |
| 2026-04-26 04:53 | 52.96593 | 16.19711 | 35888 ft | 408 kts | 333° |
| 2026-04-26 04:54 | 53.01889 | 16.16284 | 35890 ft | 409 kts | 333° |
| 2026-04-26 04:54 | 53.07185 | 16.12837 | 35884 ft | 409 kts | 333° |
| 2026-04-26 04:55 | 53.12482 | 16.09383 | 35889 ft | 409 kts | 333° |
| 2026-04-26 04:55 | 53.17776 | 16.05930 | 35893 ft | 408 kts | 333° |
| 2026-04-26 04:56 | 53.22153 | 16.03066 | 35885 ft | 406 kts | 333° |
| 2026-04-26 04:56 | 53.27404 | 15.99618 | 35887 ft | 405 kts | 333° |
| 2026-04-26 04:57 | 53.32647 | 15.96156 | 35897 ft | 405 kts | 333° |
| 2026-04-26 04:57 | 53.37883 | 15.92703 | 35897 ft | 405 kts | 333° |
| 2026-04-26 04:58 | 53.43124 | 15.89237 | 35894 ft | 404 kts | 333° |
| 2026-04-26 04:58 | 53.48372 | 15.85757 | 35888 ft | 401 kts | 332° |
| 2026-04-26 04:59 | 53.53561 | 15.82295 | 35886 ft | 402 kts | 332° |
| 2026-04-26 04:59 | 53.58753 | 15.78816 | 35885 ft | 401 kts | 332° |
| 2026-04-26 05:00 | 53.63941 | 15.75343 | 35889 ft | 401 kts | 332° |
| 2026-04-26 05:00 | 53.69123 | 15.71878 | 35899 ft | 400 kts | 332° |
| 2026-04-26 05:01 | 53.74263 | 15.68426 | 35898 ft | 397 kts | 332° |
| 2026-04-26 05:01 | 53.79384 | 15.64981 | 35873 ft | 394 kts | 332° |
| 2026-04-26 05:02 | 53.84480 | 15.61528 | 35873 ft | 395 kts | 332° |
| 2026-04-26 05:02 | 53.89582 | 15.58062 | 35880 ft | 395 kts | 332° |
| 2026-04-26 05:03 | 53.94684 | 15.54591 | 35873 ft | 395 kts | 332° |
| 2026-04-26 05:03 | 53.99829 | 15.51092 | 35879 ft | 396 kts | 332° |
| 2026-04-26 05:04 | 54.04927 | 15.47613 | 35880 ft | 394 kts | 331° |
| 2026-04-26 05:04 | 54.10011 | 15.44120 | 35877 ft | 394 kts | 331° |
| 2026-04-26 05:05 | 54.15103 | 15.40624 | 35870 ft | 395 kts | 331° |
| 2026-04-26 05:05 | 54.20203 | 15.37115 | 35869 ft | 395 kts | 331° |
| 2026-04-26 05:06 | 54.25291 | 15.33605 | 35865 ft | 395 kts | 331° |
| 2026-04-26 05:06 | 54.30393 | 15.30069 | 35879 ft | 395 kts | 330° |
| 2026-04-26 05:07 | 54.35471 | 15.26544 | 35839 ft | 393 kts | 330° |
| 2026-04-26 05:07 | 54.40546 | 15.22996 | 35827 ft | 394 kts | 330° |
| 2026-04-26 05:08 | 54.45654 | 15.19516 | 35829 ft | 395 kts | 331° |
| 2026-04-26 05:08 | 54.50777 | 15.16056 | 35814 ft | 395 kts | 331° |
| 2026-04-26 05:09 | 54.55879 | 15.12582 | 35825 ft | 395 kts | 331° |
| 2026-04-26 05:09 | 54.60987 | 15.09098 | 35652 ft | 394 kts | 331° |
| 2026-04-26 05:10 | 54.63531 | 15.07368 | 35398 ft | 394 kts | 331° |
| 2026-04-26 05:10 | 54.66118 | 15.05605 | 35258 ft | 392 kts | 331° |
| 2026-04-26 05:10 | 54.71147 | 15.02152 | 35283 ft | 386 kts | 330° |
| 2026-04-26 05:11 | 54.76107 | 14.98730 | 35274 ft | 382 kts | 330° |
| 2026-04-26 05:11 | 54.80782 | 14.94712 | 35272 ft | 368 kts | 320° |
| 2026-04-26 05:12 | 54.84584 | 14.89005 | 35280 ft | 358 kts | 308° |
| 2026-04-26 05:12 | 54.87607 | 14.82222 | 35258 ft | 354 kts | 305° |
| 2026-04-26 05:13 | 54.89083 | 14.78813 | 34955 ft | 352 kts | 304° |
| 2026-04-26 05:13 | 54.90555 | 14.75418 | 34066 ft | 351 kts | 304° |
| 2026-04-26 05:13 | 54.92022 | 14.72038 | 33145 ft | 349 kts | 304° |
| 2026-04-26 05:13 | 54.93472 | 14.68705 | 32396 ft | 342 kts | 303° |
| 2026-04-26 05:14 | 54.94907 | 14.65394 | 31626 ft | 344 kts | 303° |
| 2026-04-26 05:14 | 54.96340 | 14.62068 | 30850 ft | 344 kts | 302° |
| 2026-04-26 05:14 | 54.97780 | 14.58721 | 30077 ft | 345 kts | 302° |
| 2026-04-26 05:14 | 54.99221 | 14.55372 | 29129 ft | 346 kts | 302° |
| 2026-04-26 05:15 | 55.00689 | 14.51957 | 28191 ft | 348 kts | 302° |
| 2026-04-26 05:15 | 55.02140 | 14.48564 | 27296 ft | 354 kts | 302° |
| 2026-04-26 05:15 | 55.03619 | 14.45099 | 26305 ft | 358 kts | 302° |
| 2026-04-26 05:15 | 55.05113 | 14.41598 | 25351 ft | 362 kts | 302° |
| 2026-04-26 05:16 | 55.06627 | 14.38060 | 24418 ft | 369 kts | 303° |
| 2026-04-26 05:16 | 55.08174 | 14.34446 | 23493 ft | 373 kts | 303° |
| 2026-04-26 05:16 | 55.09719 | 14.30830 | 22438 ft | 372 kts | 303° |
| 2026-04-26 05:16 | 55.11268 | 14.27196 | 21380 ft | 370 kts | 303° |
| 2026-04-26 05:17 | 55.12798 | 14.23592 | 20365 ft | 369 kts | 303° |
| 2026-04-26 05:17 | 55.14318 | 14.20004 | 19385 ft | 367 kts | 303° |
| 2026-04-26 05:17 | 55.15830 | 14.16425 | 18439 ft | 366 kts | 303° |
| 2026-04-26 05:17 | 55.17343 | 14.12841 | 17405 ft | 365 kts | 303° |
| 2026-04-26 05:18 | 55.18842 | 14.09280 | 16360 ft | 363 kts | 303° |
| 2026-04-26 05:18 | 55.20337 | 14.05721 | 15342 ft | 362 kts | 303° |
| 2026-04-26 05:18 | 55.21826 | 14.02178 | 14479 ft | 359 kts | 304° |
| 2026-04-26 05:18 | 55.23296 | 13.98679 | 13719 ft | 355 kts | 304° |
| 2026-04-26 05:19 | 55.24756 | 13.95203 | 12879 ft | 352 kts | 304° |
| 2026-04-26 05:19 | 55.26204 | 13.91745 | 12084 ft | 350 kts | 304° |
| 2026-04-26 05:19 | 55.27649 | 13.88280 | 11342 ft | 347 kts | 304° |
| 2026-04-26 05:19 | 55.29067 | 13.84879 | 10614 ft | 343 kts | 304° |
| 2026-04-26 05:20 | 55.30473 | 13.81509 | 9866 ft | 341 kts | 305° |
| 2026-04-26 05:20 | 55.31869 | 13.78164 | 9037 ft | 339 kts | 305° |
| 2026-04-26 05:20 | 55.33254 | 13.74841 | 8200 ft | 336 kts | 305° |
| 2026-04-26 05:20 | 55.34605 | 13.71590 | 7880 ft | 320 kts | 305° |
| 2026-04-26 05:21 | 55.35876 | 13.68522 | 7770 ft | 300 kts | 305° |
| 2026-04-26 05:21 | 55.37058 | 13.65659 | 7797 ft | 280 kts | 305° |
| 2026-04-26 05:21 | 55.38163 | 13.62980 | 7801 ft | 263 kts | 305° |
| 2026-04-26 05:21 | 55.39207 | 13.60452 | 7799 ft | 247 kts | 305° |
| 2026-04-26 05:22 | 55.40190 | 13.58073 | 7789 ft | 234 kts | 305° |
| 2026-04-26 05:22 | 55.41228 | 13.55884 | 7813 ft | 233 kts | 312° |
| 2026-04-26 05:22 | 55.42443 | 13.53998 | 7807 ft | 235 kts | 319° |
| 2026-04-26 05:22 | 55.43746 | 13.52261 | 7800 ft | 235 kts | 319° |
| 2026-04-26 05:23 | 55.45043 | 13.50518 | 7805 ft | 234 kts | 319° |
| 2026-04-26 05:23 | 55.46340 | 13.48768 | 7811 ft | 234 kts | 319° |
| 2026-04-26 05:23 | 55.47632 | 13.47024 | 7800 ft | 234 kts | 319° |
| 2026-04-26 05:23 | 55.48928 | 13.45273 | 7807 ft | 234 kts | 319° |
| 2026-04-26 05:24 | 55.50216 | 13.43530 | 7810 ft | 233 kts | 319° |
| 2026-04-26 05:24 | 55.51521 | 13.41759 | 7809 ft | 233 kts | 319° |
| 2026-04-26 05:24 | 55.52824 | 13.39994 | 7809 ft | 233 kts | 319° |
| 2026-04-26 05:24 | 55.54095 | 13.38273 | 7808 ft | 233 kts | 319° |
| 2026-04-26 05:25 | 55.55383 | 13.36528 | 7748 ft | 234 kts | 319° |
| 2026-04-26 05:25 | 55.56669 | 13.34779 | 7620 ft | 233 kts | 319° |
| 2026-04-26 05:25 | 55.57952 | 13.33034 | 7507 ft | 233 kts | 319° |
| 2026-04-26 05:25 | 55.59241 | 13.31282 | 7373 ft | 234 kts | 320° |
| 2026-04-26 05:26 | 55.60530 | 13.29526 | 7243 ft | 234 kts | 320° |
| 2026-04-26 05:26 | 55.61821 | 13.27767 | 7132 ft | 234 kts | 319° |
| 2026-04-26 05:26 | 55.62631 | 13.26464 | 7037 ft | 232 kts | 310° |
| 2026-04-26 05:26 | 55.63570 | 13.24158 | 6920 ft | 231 kts | 303° |
| 2026-04-26 05:27 | 55.64457 | 13.21784 | 6787 ft | 231 kts | 303° |
| 2026-04-26 05:27 | 55.65344 | 13.19421 | 6659 ft | 231 kts | 303° |
| 2026-04-26 05:27 | 55.66232 | 13.17055 | 6533 ft | 231 kts | 303° |
| 2026-04-26 05:27 | 55.67121 | 13.14684 | 6406 ft | 231 kts | 303° |
| 2026-04-26 05:28 | 55.68010 | 13.12310 | 6291 ft | 231 kts | 303° |
| 2026-04-26 05:28 | 55.68915 | 13.09891 | 6171 ft | 234 kts | 304° |
| 2026-04-26 05:28 | 55.69812 | 13.07492 | 6035 ft | 233 kts | 304° |
| 2026-04-26 05:28 | 55.70704 | 13.05107 | 5903 ft | 232 kts | 304° |
| 2026-04-26 05:29 | 55.71591 | 13.02726 | 5770 ft | 230 kts | 303° |
| 2026-04-26 05:29 | 55.72469 | 13.00357 | 5637 ft | 229 kts | 303° |
| 2026-04-26 05:29 | 55.73343 | 12.97994 | 5486 ft | 229 kts | 304° |
| 2026-04-26 05:29 | 55.74221 | 12.95629 | 5356 ft | 229 kts | 304° |
| 2026-04-26 05:30 | 55.75093 | 12.93279 | 5226 ft | 228 kts | 304° |
| 2026-04-26 05:30 | 55.75965 | 12.90931 | 5090 ft | 228 kts | 304° |
| 2026-04-26 05:30 | 55.76669 | 12.88425 | 4973 ft | 230 kts | 285° |
| 2026-04-26 05:30 | 55.76573 | 12.85563 | 4838 ft | 242 kts | 256° |
| 2026-04-26 05:31 | 55.75533 | 12.83121 | 4715 ft | 261 kts | 225° |
| 2026-04-26 05:31 | 55.74016 | 12.81277 | 4588 ft | 266 kts | 221° |
| 2026-04-26 05:31 | 55.72463 | 12.79497 | 4456 ft | 265 kts | 220° |
| 2026-04-26 05:31 | 55.70735 | 12.78234 | 4324 ft | 279 kts | 194° |
| 2026-04-26 05:32 | 55.68783 | 12.78620 | 4179 ft | 292 kts | 161° |
| 2026-04-26 05:32 | 55.67158 | 12.80770 | 4055 ft | 297 kts | 127° |
| 2026-04-26 05:32 | 55.65980 | 12.83803 | 3994 ft | 298 kts | 122° |
| 2026-04-26 05:32 | 55.64842 | 12.86878 | 4003 ft | 299 kts | 122° |
| 2026-04-26 05:33 | 55.63714 | 12.89950 | 3999 ft | 298 kts | 122° |
| 2026-04-26 05:33 | 55.62580 | 12.93032 | 4005 ft | 299 kts | 122° |
| 2026-04-26 05:33 | 55.61425 | 12.96093 | 4006 ft | 298 kts | 124° |
| 2026-04-26 05:33 | 55.60288 | 12.99063 | 3996 ft | 285 kts | 124° |
| 2026-04-26 05:34 | 55.59185 | 13.01927 | 3995 ft | 272 kts | 124° |
| 2026-04-26 05:34 | 55.58136 | 13.04630 | 3993 ft | 270 kts | 124° |
| 2026-04-26 05:34 | 55.57058 | 13.07401 | 3993 ft | 270 kts | 124° |
| 2026-04-26 05:34 | 55.55994 | 13.10132 | 3993 ft | 270 kts | 125° |
| 2026-04-26 05:35 | 55.54775 | 13.12629 | 3937 ft | 267 kts | 146° |
| 2026-04-26 05:35 | 55.53167 | 13.14069 | 3793 ft | 256 kts | 173° |
| 2026-04-26 05:35 | 55.51445 | 13.14253 | 3664 ft | 239 kts | 198° |
| 2026-04-26 05:35 | 55.49949 | 13.13366 | 3533 ft | 217 kts | 220° |
| 2026-04-26 05:36 | 55.48834 | 13.11793 | 3407 ft | 197 kts | 239° |
| 2026-04-26 05:36 | 55.48108 | 13.09844 | 3279 ft | 186 kts | 255° |
| 2026-04-26 05:36 | 55.47750 | 13.07720 | 3149 ft | 178 kts | 269° |
| 2026-04-26 05:36 | 55.47742 | 13.05582 | 3058 ft | 172 kts | 282° |
| 2026-04-26 05:37 | 55.48052 | 13.03561 | 2984 ft | 170 kts | 295° |
| 2026-04-26 05:37 | 55.48537 | 13.01654 | 2983 ft | 171 kts | 297° |
| 2026-04-26 05:37 | 55.49100 | 12.99814 | 2994 ft | 170 kts | 301° |
| 2026-04-26 05:37 | 55.49721 | 12.98035 | 2993 ft | 170 kts | 303° |
| 2026-04-26 05:38 | 55.50364 | 12.96279 | 2993 ft | 170 kts | 303° |
| 2026-04-26 05:38 | 55.51013 | 12.94531 | 2993 ft | 170 kts | 303° |
| 2026-04-26 05:38 | 55.51664 | 12.92789 | 2993 ft | 170 kts | 303° |
| 2026-04-26 05:38 | 55.52316 | 12.91045 | 2996 ft | 170 kts | 303° |
| 2026-04-26 05:39 | 55.52967 | 12.89304 | 2948 ft | 171 kts | 303° |
| 2026-04-26 05:39 | 55.53623 | 12.87551 | 2813 ft | 170 kts | 303° |
| 2026-04-26 05:39 | 55.54274 | 12.85809 | 2600 ft | 169 kts | 303° |
| 2026-04-26 05:39 | 55.54929 | 12.84053 | 2395 ft | 169 kts | 303° |
| 2026-04-26 05:40 | 55.55567 | 12.82343 | 2161 ft | 168 kts | 303° |
| 2026-04-26 05:40 | 55.56209 | 12.80622 | 1956 ft | 162 kts | 303° |
| 2026-04-26 05:40 | 55.56811 | 12.79005 | 1721 ft | 151 kts | 303° |
| 2026-04-26 05:40 | 55.57350 | 12.77560 | 1506 ft | 132 kts | 303° |
| 2026-04-26 05:41 | 55.57826 | 12.76281 | 1334 ft | 117 kts | 302° |
| 2026-04-26 05:41 | 55.58248 | 12.75146 | 1176 ft | 104 kts | 302° |
| 2026-04-26 05:41 | 55.58625 | 12.74130 | 1035 ft | 100 kts | 304° |
| 2026-04-26 05:41 | 55.59000 | 12.73112 | 1079 ft | 98 kts | 302° |
| 2026-04-26 05:42 | 55.59399 | 12.72032 | 1034 ft | 119 kts | 304° |
| 2026-04-26 05:42 | 55.59857 | 12.70774 | 812 ft | 125 kts | 301° |
| 2026-04-26 05:42 | 55.60302 | 12.69451 | 457 ft | 121 kts | 304° |
| 2026-04-26 05:42 | 55.60802 | 12.68239 | 243 ft | 122 kts | 304° |
| 2026-04-26 05:43 | 55.61269 | 12.66966 | 92 ft | 125 kts | 306° |
| 2026-04-26 05:43 | 55.61732 | 12.65752 | 29 ft | 107 kts | 303° |
| 2026-04-26 05:43 | 55.62055 | 12.64868 | 23 ft | 59 kts | 305° |
| 2026-04-26 05:43 | 55.62195 | 12.64511 | 20 ft | 21 kts | 303° |
| 2026-04-26 05:44 | 55.62284 | 12.64266 | 18 ft | 26 kts | 302° |
| 2026-04-26 05:44 | 55.62393 | 12.63971 | 19 ft | 30 kts | 304° |
| 2026-04-26 05:44 | 55.62547 | 12.63775 | 29 ft | 8 kts | 358° |
| 2026-04-26 05:44 | 55.62549 | 12.63775 | 29 ft | 0 kts | 360° |
| 2026-04-26 05:45 | 55.62557 | 12.63775 | 29 ft | 7 kts | 360° |
| 2026-04-26 05:45 | 55.62627 | 12.63791 | 25 ft | 12 kts | 31° |
| 2026-04-26 05:45 | 55.62625 | 12.63929 | 30 ft | 14 kts | 120° |
| 2026-04-26 05:46 | 55.62560 | 12.64096 | 22 ft | 19 kts | 124° |
| 2026-04-26 05:46 | 55.62482 | 12.64316 | 20 ft | 23 kts | 126° |
| 2026-04-26 05:46 | 55.62381 | 12.64549 | 21 ft | 12 kts | 121° |
| 2026-04-26 05:46 | 55.62391 | 12.64690 | 22 ft | 13 kts | 60° |
| 2026-04-26 05:47 | 55.62363 | 12.64841 | 23 ft | 14 kts | 123° |
| 2026-04-26 05:47 | 55.62301 | 12.65002 | 24 ft | 18 kts | 124° |
| 2026-04-26 05:47 | 55.62323 | 12.65186 | 23 ft | 20 kts | 19° |
| 2026-04-26 05:47 | 55.62468 | 12.65181 | 20 ft | 23 kts | 359° |
| 2026-04-26 05:48 | 55.62626 | 12.65170 | 19 ft | 12 kts | 356° |
| 2026-04-26 05:48 | 55.62653 | 12.65168 | 20 ft | 3 kts | 356° |
| 2026-04-26 05:48 | 55.62685 | 12.65133 | 20 ft | 7 kts | 299° |
| 2026-04-26 05:48 | 55.62696 | 12.65077 | 21 ft | 0 kts | 288° |